Time;durP1;ratioP1;P1;durP2;ratioP2;P2;SDS_P1;SDS_P2;PMS_P1;PMS_P2;Temp;Humidity;BMP_temperature;BMP_pressure;BME280_temperature;BME280_humidity;BME280_pressure;Samples;Min_cycle;Max_cycle;Signal;HPM_P1;HPM_P2
2023/01/29 00:01:24;;;;;;;32.53;18.02;;;;;;;-2.43;100.00;102907.44;5242985;28;20111;-75
2023/01/29 00:03:56;;;;;;;33.95;18.60;;;;;;;-2.33;100.00;102909.28;5242599;28;20603;-75
2023/01/29 00:06:27;;;;;;;34.25;18.80;;;;;;;-2.38;100.00;102903.09;5240741;28;20500;-74
2023/01/29 00:08:58;;;;;;;33.63;17.65;;;;;;;-2.31;100.00;102897.09;5238253;28;20774;-76
2023/01/29 00:11:30;;;;;;;32.05;17.42;;;;;;;-2.31;100.00;102896.22;5233105;28;20033;-75
2023/01/29 00:14:02;;;;;;;36.80;18.30;;;;;;;-2.28;100.00;102891.91;5238587;28;20036;-75
2023/01/29 00:16:33;;;;;;;33.20;17.83;;;;;;;-2.23;100.00;102891.94;5235538;28;20497;-75
2023/01/29 00:19:04;;;;;;;35.10;17.92;;;;;;;-2.26;100.00;102890.19;5237926;28;20033;-75
2023/01/29 00:21:36;;;;;;;34.43;19.00;;;;;;;-2.27;100.00;102887.53;5229881;28;20139;-75
2023/01/29 00:24:07;;;;;;;36.63;18.95;;;;;;;-2.19;100.00;102885.88;5243514;28;20061;-75
2023/01/29 00:26:39;;;;;;;38.40;19.45;;;;;;;-2.22;100.00;102881.50;5239005;28;20119;-75
2023/01/29 00:29:10;;;;;;;37.38;19.73;;;;;;;-2.12;100.00;102878.97;5240426;28;20449;-75
2023/01/29 00:31:43;;;;;;;33.80;18.20;;;;;;;-2.09;100.00;102877.25;5237502;28;20138;-75
2023/01/29 00:34:15;;;;;;;36.10;18.98;;;;;;;-2.15;100.00;102871.09;5236776;28;20087;-75
2023/01/29 00:36:46;;;;;;;36.33;18.80;;;;;;;-2.19;100.00;102870.19;5234227;28;20040;-75
2023/01/29 00:39:23;;;;;;;34.03;17.00;;;;;;;-2.13;100.00;102885.06;5235605;28;20027;-75
2023/01/29 00:44:56;;;;;;;47.28;18.15;;;;;;;-2.14;100.00;102868.50;5236820;28;20041;-75
2023/01/29 00:47:32;;;;;;;35.63;18.52;;;;;;;-2.12;100.00;102865.91;5241343;28;20063;-75
2023/01/29 00:50:07;;;;;;;33.57;18.10;;;;;;;-2.01;100.00;102859.03;5240391;28;20202;-75
2023/01/29 00:52:42;;;;;;;34.28;18.48;;;;;;;-2.08;100.00;102859.81;5248013;28;20398;-74
2023/01/29 00:55:13;;;;;;;34.03;18.13;;;;;;;-2.08;100.00;102847.63;5242553;28;20601;-75
2023/01/29 00:57:45;;;;;;;35.65;18.77;;;;;;;-2.11;100.00;102836.25;5238038;28;20181;-75
2023/01/29 01:00:17;;;;;;;33.00;17.33;;;;;;;-2.11;100.00;102836.25;5240685;28;20037;-75
2023/01/29 01:03:07;;;;;;;33.42;17.35;;;;;;;-2.08;100.00;102841.53;5240166;28;20533;-75
2023/01/29 01:05:38;;;;;;;35.10;17.80;;;;;;;-2.17;100.00;102826.63;5248979;28;20021;-75
2023/01/29 01:11:05;;;;;;;32.33;16.98;;;;;;;-2.01;100.00;102830.25;5241223;28;20041;-75
2023/01/29 01:13:36;;;;;;;33.15;18.00;;;;;;;-2.05;100.00;102836.28;5241628;28;20037;-75
2023/01/29 01:16:09;;;;;;;32.67;16.80;;;;;;;-2.06;100.00;102838.03;5248636;28;20110;-75
2023/01/29 01:18:41;;;;;;;33.70;18.23;;;;;;;-2.04;100.00;102843.28;5240069;28;20048;-75
2023/01/29 01:21:12;;;;;;;33.22;17.35;;;;;;;-2.14;100.00;102844.97;5230652;28;20499;-75
2023/01/29 01:23:43;;;;;;;33.08;17.23;;;;;;;-2.17;100.00;102848.44;5234447;28;20032;-75
2023/01/29 01:26:15;;;;;;;36.70;18.25;;;;;;;-2.22;100.00;102844.88;5236350;28;20035;-75
2023/01/29 01:28:46;;;;;;;34.72;18.08;;;;;;;-2.24;100.00;102835.28;5232463;28;20094;-75
2023/01/29 01:31:17;;;;;;;34.88;18.55;;;;;;;-2.17;100.00;102839.69;5229168;28;20112;-75
2023/01/29 01:33:50;;;;;;;34.17;17.83;;;;;;;-2.26;100.00;102852.69;5229676;28;20029;-75
2023/01/29 01:36:21;;;;;;;36.70;19.35;;;;;;;-2.28;100.00;102841.31;5235878;28;20035;-75
2023/01/29 01:38:53;;;;;;;37.65;18.75;;;;;;;-2.29;100.00;102850.91;5229685;28;20299;-75
2023/01/29 01:41:25;;;;;;;38.38;18.65;;;;;;;-2.28;100.00;102844.84;5228578;28;20025;-75
2023/01/29 01:43:59;;;;;;;35.17;18.15;;;;;;;-2.22;100.00;102844.88;5229790;28;20068;-75
2023/01/29 01:46:36;;;;;;;35.05;18.38;;;;;;;-2.28;100.00;102849.16;5242260;28;20037;-75
2023/01/29 01:49:15;;;;;;;37.53;19.67;;;;;;;-2.26;100.00;102843.13;5238063;28;20123;-75
2023/01/29 01:51:51;;;;;;;36.50;19.15;;;;;;;-2.28;100.00;102846.56;5240475;28;20633;-75
2023/01/29 01:54:28;;;;;;;43.42;20.52;;;;;;;-2.32;100.00;102847.41;5245168;28;20498;-76
2023/01/29 01:57:14;;;;;;;40.13;20.90;;;;;;;-2.26;100.00;102842.22;5245542;28;20040;-76
2023/01/29 01:59:49;;;;;;;40.17;21.75;;;;;;;-2.33;100.00;102850.88;5243969;28;20035;-76
2023/01/29 02:10:53;;;;;;;41.03;20.67;;;;;;;-2.33;100.00;102856.13;5237487;28;20040;-76
2023/01/29 02:13:24;;;;;;;37.67;20.30;;;;;;;-2.39;100.00;102855.19;5235909;28;20037;-75
2023/01/29 02:15:55;;;;;;;39.13;20.88;;;;;;;-2.40;100.00;102847.31;5238160;28;20087;-76
2023/01/29 02:18:26;;;;;;;43.00;22.33;;;;;;;-2.39;100.00;102849.09;5229941;28;20129;-76
2023/01/29 02:21:23;;;;;;;40.88;21.83;;;;;;;-2.42;100.00;102851.66;5232763;28;20489;-76
2023/01/29 02:24:13;;;;;;;39.85;20.60;;;;;;;-2.39;100.00;102852.56;5232358;28;20036;-76
2023/01/29 02:27:18;;;;;;;45.20;22.15;;;;;;;-2.39;100.00;102864.78;5228755;28;20036;-76
2023/01/29 02:29:54;;;;;;;42.05;22.35;;;;;;;-2.34;100.00;102865.66;5231861;28;20108;-76
2023/01/29 02:32:53;;;;;;;42.53;22.20;;;;;;;-2.36;100.00;102867.41;5231313;28;20372;-76
2023/01/29 02:35:47;;;;;;;39.70;22.00;;;;;;;-2.38;100.00;102870.03;5237410;28;20288;-76
2023/01/29 02:38:33;;;;;;;43.17;20.83;;;;;;;-2.36;100.00;102862.16;5220382;28;20033;-76
2023/01/29 02:41:36;;;;;;;38.08;20.98;;;;;;;-2.34;100.00;102865.66;5236640;28;20304;-76
2023/01/29 02:44:29;;;;;;;42.00;21.92;;;;;;;-2.34;100.00;102862.19;5233521;28;20131;-76
2023/01/29 02:47:06;;;;;;;42.67;22.65;;;;;;;-2.34;100.00;102852.59;5230677;28;20036;-76
2023/01/29 02:49:58;;;;;;;43.35;22.60;;;;;;;-2.25;100.00;102859.66;5231215;28;20117;-76
2023/01/29 02:52:37;;;;;;;41.65;21.42;;;;;;;-2.25;100.00;102851.81;5232700;28;20201;-76
2023/01/29 02:55:22;;;;;;;41.13;22.35;;;;;;;-2.26;100.00;102845.72;5230007;28;20040;-76
2023/01/29 02:57:56;;;;;;;;;;;;;;;-2.18;100.00;102845.81;5232023;28;20028;-76
2023/01/29 03:00:35;;;;;;;39.35;19.92;;;;;;;-2.12;100.00;102840.63;5230064;28;20059;-76
2023/01/29 03:03:15;;;;;;;41.53;20.95;;;;;;;-2.11;100.00;102839.75;5232608;28;20044;-76
2023/01/29 03:06:01;;;;;;;41.77;22.53;;;;;;;-2.02;100.00;102847.66;5237952;28;20561;-76
2023/01/29 03:08:44;;;;;;;41.65;23.15;;;;;;;-2.05;100.00;102846.75;5232515;28;20057;-76
2023/01/29 03:11:17;;;;;;;41.08;22.75;;;;;;;-1.95;100.00;102852.97;5236560;28;20116;-76
2023/01/29 03:14:12;;;;;;;44.42;23.85;;;;;;;-1.99;100.00;102854.69;5233939;28;20037;-76
2023/01/29 03:16:49;;;;;;;42.72;22.02;;;;;;;-2.03;100.00;102843.31;5236000;28;20711;-75
2023/01/29 03:19:40;;;;;;;44.20;23.58;;;;;;;-1.95;100.00;102842.50;5242335;28;20105;-75
2023/01/29 03:22:15;;;;;;;40.10;22.25;;;;;;;-1.96;100.00;102846.84;5239418;28;20081;-76
2023/01/29 03:33:41;;;;;;;39.15;20.58;;;;;;;-1.77;100.00;102838.25;5238679;28;20037;-76
2023/01/29 03:36:23;;;;;;;38.72;21.25;;;;;;;-1.65;100.00;102834.88;5240566;28;20029;-76
2023/01/29 03:38:55;;;;;;;38.13;20.58;;;;;;;-1.66;100.00;102830.50;5240917;28;20029;-76
2023/01/29 03:41:33;;;;;;;38.85;21.65;;;;;;;-1.61;100.00;102828.78;5237897;28;20043;-76
2023/01/29 03:44:17;;;;;;;38.38;20.67;;;;;;;-1.59;100.00;102828.81;5237897;28;20040;-76
2023/01/29 03:46:59;;;;;;;39.50;21.95;;;;;;;-1.64;100.00;102838.34;5234309;28;20056;-76
2023/01/29 03:49:39;;;;;;;38.40;21.08;;;;;;;-1.60;100.00;102832.28;5234204;28;20060;-75
2023/01/29 03:52:36;;;;;;;38.70;21.05;;;;;;;-1.60;100.00;102830.53;5230878;28;20028;-76
2023/01/29 03:55:14;;;;;;;39.38;20.70;;;;;;;-1.58;100.00;102820.94;5241038;28;20025;-76
2023/01/29 03:57:56;;;;;;;39.72;20.92;;;;;;;-1.51;100.00;102814.00;5240098;28;20052;-76
2023/01/29 04:00:33;;;;;;;36.97;19.77;;;;;;;-1.59;100.00;102810.47;5242276;28;20033;-75
2023/01/29 04:03:16;;;;;;;38.40;20.63;;;;;;;-1.53;100.00;102818.38;5237410;28;20072;-75
2023/01/29 04:06:11;;;;;;;40.33;21.50;;;;;;;-1.46;100.00;102814.03;5238654;28;20037;-76
2023/01/29 04:09:03;;;;;;;38.53;20.77;;;;;;;-1.40;100.00;102812.31;5243151;28;20059;-75
2023/01/29 04:11:39;;;;;;;38.42;20.88;;;;;;;-1.41;100.00;102797.47;5237984;28;20033;-76
2023/01/29 04:14:12;;;;;;;36.65;20.60;;;;;;;-1.40;100.00;102796.63;5247624;28;21970;-76
2023/01/29 04:16:49;;;;;;;39.47;21.75;;;;;;;-1.36;100.00;102791.38;5238365;28;20021;-75
2023/01/29 04:19:22;;;;;;;36.45;20.08;;;;;;;-1.30;100.00;102799.28;5239427;28;20114;-75
2023/01/29 04:22:04;;;;;;;41.13;21.88;;;;;;;-1.28;100.00;102793.16;5240625;28;20049;-75
2023/01/29 04:24:36;;;;;;;38.75;21.38;;;;;;;-1.31;100.00;102787.03;5244566;28;20649;-75
2023/01/29 04:27:36;;;;;;;39.17;21.45;;;;;;;-1.25;100.00;102784.44;5240222;28;20021;-76
2023/01/29 04:30:26;;;;;;;42.75;22.13;;;;;;;-1.23;100.00;102783.59;5241445;28;20021;-75
2023/01/29 04:33:13;;;;;;;40.78;21.75;;;;;;;-1.25;100.00;102801.03;5242791;28;21124;-75
2023/01/29 04:35:53;;;;;;;40.17;22.05;;;;;;;-1.24;100.00;102799.31;5238803;28;20509;-75
2023/01/29 04:38:56;;;;;;;39.85;21.27;;;;;;;-1.20;100.00;102799.31;5237238;28;20326;-75
2023/01/29 04:41:58;;;;;;;38.28;20.33;;;;;;;-1.19;100.00;102793.22;5213658;28;20124;-76
2023/01/29 04:44:48;;;;;;;40.78;21.45;;;;;;;-1.13;100.00;102787.13;5233099;28;20111;-75
2023/01/29 04:47:36;;;;;;;41.22;22.40;;;;;;;-1.07;100.00;102774.03;5238813;28;20040;-76
2023/01/29 04:50:15;;;;;;;37.67;20.45;;;;;;;-1.07;100.00;102774.03;5240561;28;20032;-76
2023/01/29 04:52:52;;;;;;;40.67;22.27;;;;;;;-0.95;100.00;102767.09;5239689;28;20041;-75
2023/01/29 04:55:38;;;;;;;39.78;21.70;;;;;;;-0.99;100.00;102761.84;5240153;28;20048;-76
2023/01/29 04:58:13;;;;;;;44.47;22.23;;;;;;;-0.94;100.00;102756.63;5241251;28;20032;-75
2023/01/29 05:00:48;;;;;;;39.20;22.35;;;;;;;-0.86;100.00;102743.53;5234823;28;20036;-75
2023/01/29 05:03:24;;;;;;;42.65;22.75;;;;;;;-0.86;100.00;102741.78;5236970;28;20032;-76
2023/01/29 05:05:58;;;;;;;42.80;22.77;;;;;;;-0.87;100.00;102744.41;5237312;28;20391;-75
2023/01/29 05:08:31;;;;;;;43.05;22.75;;;;;;;-0.88;100.00;102743.53;5240205;28;20048;-75
2023/01/29 05:11:03;;;;;;;39.40;22.88;;;;;;;-0.80;100.00;102733.91;5245328;28;20017;-76
2023/01/29 05:13:38;;;;;;;43.25;23.63;;;;;;;-0.87;100.00;102739.16;5241361;28;20032;-76
2023/01/29 05:16:24;;;;;;;42.50;23.65;;;;;;;-0.79;100.00;102740.03;5246124;28;20120;-76
2023/01/29 05:18:55;;;;;;;43.25;23.45;;;;;;;-0.83;100.00;102740.91;5241165;28;20063;-75
2023/01/29 05:21:27;;;;;;;43.60;22.85;;;;;;;-0.83;100.00;102740.91;5242649;28;20041;-75
2023/01/29 05:24:10;;;;;;;41.72;22.73;;;;;;;-0.85;100.00;102727.78;5243713;28;20159;-76
2023/01/29 05:29:33;;;;;;;45.58;23.95;;;;;;;-0.78;100.00;102722.59;5244065;28;20505;-75
2023/01/29 05:32:04;;;;;;;45.40;24.80;;;;;;;-0.75;100.00;102725.19;5239738;28;20033;-75
2023/01/29 05:34:36;;;;;;;43.38;24.67;;;;;;;-0.76;100.00;102720.84;5238649;28;20025;-76
2023/01/29 05:37:08;;;;;;;46.42;25.08;;;;;;;-0.60;100.00;102718.19;5237495;28;20041;-76
2023/01/29 05:39:40;;;;;;;44.60;24.08;;;;;;;-0.58;100.00;102717.34;5240626;28;20473;-76
2023/01/29 05:42:11;;;;;;;45.75;25.65;;;;;;;-0.71;100.00;102709.47;5240873;28;20038;-76
2023/01/29 05:44:42;;;;;;;43.45;24.17;;;;;;;-0.54;100.00;102732.19;5246391;28;20061;-75
2023/01/29 05:47:17;;;;;;;49.97;24.70;;;;;;;-0.63;100.00;102718.22;5238599;28;20423;-76
2023/01/29 05:49:49;;;;;;;43.38;24.60;;;;;;;-0.61;100.00;102721.72;5240123;28;20025;-76
2023/01/29 05:52:20;;;;;;;45.08;24.25;;;;;;;-0.60;100.00;102731.31;5241484;28;20486;-76
2023/01/29 05:54:51;;;;;;;45.10;25.08;;;;;;;-0.60;100.00;102728.69;5243393;28;20528;-76
2023/01/29 05:57:23;;;;;;;44.40;25.10;;;;;;;-0.57;100.00;102730.44;5241615;28;20021;-75
2023/01/29 05:59:54;;;;;;;43.17;24.42;;;;;;;-0.43;100.00;102739.19;5241284;28;20021;-76
2023/01/29 06:02:29;;;;;;;46.35;24.58;;;;;;;-0.45;100.00;102737.44;5240708;28;20487;-76
2023/01/29 06:05:00;;;;;;;47.30;25.02;;;;;;;-0.48;100.00;102730.47;5241416;28;20097;-76
2023/01/29 06:07:32;;;;;;;47.30;26.30;;;;;;;-0.48;100.00;102734.81;5241664;28;20054;-76
2023/01/29 06:10:03;;;;;;;47.20;26.48;;;;;;;-0.50;100.00;102736.56;5245929;28;20021;-76
2023/01/29 06:12:35;;;;;;;45.13;25.90;;;;;;;-0.48;100.00;102743.56;5244073;28;20055;-76
2023/01/29 06:15:07;;;;;;;47.00;25.90;;;;;;;-0.51;100.00;102742.69;5241681;28;20041;-76
2023/01/29 06:17:38;;;;;;;49.20;26.80;;;;;;;-0.41;100.00;102742.66;5239663;28;20078;-76
2023/01/29 06:20:10;;;;;;;46.92;26.33;;;;;;;-0.35;100.00;102754.91;5237607;28;20032;-76
2023/01/29 06:22:41;;;;;;;48.70;27.98;;;;;;;-0.39;100.00;102753.16;5238935;28;20745;-76
2023/01/29 06:25:12;;;;;;;44.97;26.65;;;;;;;-0.40;100.00;102764.56;5239274;28;20117;-76
2023/01/29 06:27:44;;;;;;;46.75;25.65;;;;;;;-0.34;100.00;102774.16;5240273;28;20029;-76
2023/01/29 06:30:15;;;;;;;49.50;27.95;;;;;;;-0.27;100.00;102774.16;5239600;28;20060;-76
2023/01/29 06:32:46;;;;;;;50.38;27.23;;;;;;;-0.31;100.00;102758.41;5238411;28;20690;-76
2023/01/29 06:35:18;;;;;;;46.72;26.38;;;;;;;-0.33;100.00;102737.41;5244867;28;20029;-76
2023/01/29 06:37:49;;;;;;;48.50;26.65;;;;;;;-0.32;100.00;102725.22;5242936;28;20029;-76
2023/01/29 06:40:20;;;;;;;50.50;27.38;;;;;;;-0.31;100.00;102719.06;5241337;28;20077;-76
2023/01/29 06:42:52;;;;;;;49.22;27.35;;;;;;;-0.33;100.00;102711.19;5244161;28;20028;-76
2023/01/29 06:45:23;;;;;;;47.75;27.10;;;;;;;-0.18;100.00;102709.44;5245138;28;20463;-76
2023/01/29 06:47:55;;;;;;;49.60;27.55;;;;;;;-0.25;100.00;102722.56;5248993;28;20025;-76
2023/01/29 06:50:26;;;;;;;46.95;26.80;;;;;;;-0.27;100.00;102724.34;5244382;28;20028;-76
2023/01/29 06:52:57;;;;;;;46.28;26.30;;;;;;;-0.16;100.00;102718.19;5249643;28;20135;-77
2023/01/29 06:55:29;;;;;;;51.00;27.55;;;;;;;-0.13;100.00;102721.69;5250065;28;20479;-76
2023/01/29 06:58:08;;;;;;;48.60;26.73;;;;;;;-0.25;100.00;102709.47;5244342;28;20483;-76
2023/01/29 07:00:39;;;;;;;45.88;26.38;;;;;;;-0.23;100.00;102705.09;5240377;28;20059;-76
2023/01/29 07:03:10;;;;;;;45.05;25.40;;;;;;;-0.20;100.00;102707.69;5243423;28;20040;-76
2023/01/29 07:05:42;;;;;;;47.25;25.15;;;;;;;-0.20;100.00;102704.19;5241028;28;20045;-76
2023/01/29 07:08:13;;;;;;;49.13;27.42;;;;;;;-0.26;100.00;102704.22;5243879;28;20483;-76
2023/01/29 07:10:44;;;;;;;45.83;25.30;;;;;;;-0.24;100.00;102703.31;5245480;28;20071;-76
2023/01/29 07:13:16;;;;;;;45.03;26.30;;;;;;;-0.26;100.00;102705.06;5254313;28;20399;-76
2023/01/29 07:15:47;;;;;;;48.33;26.85;;;;;;;-0.27;100.00;102705.97;5246856;28;20106;-76
2023/01/29 07:18:18;;;;;;;49.85;26.08;;;;;;;-0.18;100.00;102712.06;5246928;28;20040;-76
2023/01/29 07:20:50;;;;;;;49.10;28.00;;;;;;;-0.16;100.00;102719.06;5244730;28;20107;-76
2023/01/29 07:23:21;;;;;;;49.58;27.42;;;;;;;-0.16;100.00;102718.19;5249011;28;20056;-76
2023/01/29 07:25:52;;;;;;;45.28;25.35;;;;;;;-0.09;100.00;102719.94;5255023;28;20456;-76
2023/01/29 07:28:24;;;;;;;48.95;27.92;;;;;;;-0.02;100.00;102724.25;5249828;28;20425;-76
2023/01/29 07:30:57;;;;;;;48.97;27.77;;;;;;;-0.10;100.00;102720.78;5246725;28;20067;-76
2023/01/29 07:33:28;;;;;;;46.47;27.33;;;;;;;0.02;100.00;102723.41;5245728;28;20037;-76
2023/01/29 07:35:59;;;;;;;44.78;26.67;;;;;;;-0.10;100.00;102720.78;5248895;28;20122;-76
2023/01/29 07:38:31;;;;;;;47.83;26.20;;;;;;;-0.04;100.00;102715.53;5246582;28;20448;-76
2023/01/29 07:41:02;;;;;;;45.50;26.38;;;;;;;-0.05;100.00;102706.78;5246815;28;20032;-76
2023/01/29 07:43:33;;;;;;;49.97;29.05;;;;;;;-0.04;100.00;102697.16;5248621;28;20041;-76
2023/01/29 07:46:05;;;;;;;49.22;28.70;;;;;;;0.02;100.00;102698.91;5247421;28;20037;-76
2023/01/29 07:48:36;;;;;;;51.35;27.75;;;;;;;0.08;100.00;102696.28;5243747;28;20031;-76
2023/01/29 07:51:07;;;;;;;47.70;26.33;;;;;;;0.01;100.00;102708.53;5243522;28;20467;-76
2023/01/29 07:53:39;;;;;;;45.85;25.90;;;;;;;-0.03;100.00;102714.66;5244667;28;20107;-76
2023/01/29 07:56:10;;;;;;;46.97;26.80;;;;;;;0.17;100.00;102722.47;5243769;28;20036;-75
2023/01/29 07:58:41;;;;;;;48.65;26.65;;;;;;;-0.01;100.00;102713.78;5246663;28;20539;-75
2023/01/29 08:01:12;;;;;;;46.95;26.23;;;;;;;0.01;100.00;102705.03;5247623;28;20455;-75
2023/01/29 08:03:44;;;;;;;45.60;26.27;;;;;;;0.01;100.00;102707.66;5248349;28;20032;-76
2023/01/29 08:06:15;;;;;;;44.90;26.98;;;;;;;-0.03;100.00;102720.78;5248305;28;20063;-76
2023/01/29 08:08:46;;;;;;;48.95;27.17;;;;;;;0.04;100.00;102708.53;5255534;28;20064;-76
2023/01/29 08:11:18;;;;;;;48.22;27.77;;;;;;;0.19;100.00;102708.50;5249071;28;20057;-76
2023/01/29 08:13:49;;;;;;;45.55;26.88;;;;;;;0.10;100.00;102705.88;5253589;28;20134;-76
2023/01/29 08:16:20;;;;;;;47.03;27.05;;;;;;;0.12;100.00;102698.00;5253774;28;20032;-75
2023/01/29 08:18:52;;;;;;;50.95;28.10;;;;;;;0.14;100.00;102699.75;5253820;28;20040;-75
2023/01/29 08:21:23;;;;;;;45.45;26.95;;;;;;;0.22;100.00;102704.97;5251676;28;20063;-75
2023/01/29 08:23:54;;;;;;;47.95;26.95;;;;;;;0.14;100.00;102707.63;5255125;28;20098;-75
2023/01/29 08:26:26;;;;;;;46.72;26.75;;;;;;;0.13;100.00;102695.34;5254935;28;20033;-75
2023/01/29 08:28:57;;;;;;;47.00;26.73;;;;;;;0.25;100.00;102704.06;5257778;28;20033;-76
2023/01/29 08:31:28;;;;;;;46.97;26.13;;;;;;;0.18;100.00;102693.59;5253433;28;20102;-75
2023/01/29 08:34:00;;;;;;;44.17;25.90;;;;;;;0.16;100.00;102689.25;5255464;28;20037;-75
2023/01/29 08:36:31;;;;;;;44.10;25.90;;;;;;;0.18;100.00;102687.50;5254210;28;20094;-75
2023/01/29 08:39:02;;;;;;;42.42;25.40;;;;;;;0.19;100.00;102687.50;5246521;28;20055;-75
2023/01/29 08:41:34;;;;;;;47.25;26.75;;;;;;;0.19;100.00;102684.88;5253069;28;20028;-75
2023/01/29 08:44:05;;;;;;;45.28;25.52;;;;;;;0.22;100.00;102677.84;5247049;28;20440;-74
2023/01/29 08:46:39;;;;;;;46.90;27.63;;;;;;;0.26;100.00;102676.97;5251296;28;20098;-74
2023/01/29 08:49:10;;;;;;;47.25;26.40;;;;;;;0.29;100.00;102676.94;5255300;28;20032;-74
2023/01/29 08:51:42;;;;;;;44.80;26.83;;;;;;;0.29;100.00;102669.06;5252191;28;20151;-74
2023/01/29 08:54:13;;;;;;;45.25;26.25;;;;;;;0.25;100.00;102673.47;5254507;28;20344;-74
2023/01/29 08:56:44;;;;;;;47.17;26.98;;;;;;;0.36;100.00;102665.53;5252316;28;20071;-74
2023/01/29 08:59:16;;;;;;;42.28;26.25;;;;;;;0.37;100.00;102667.28;5249580;28;20504;-73
2023/01/29 09:01:47;;;;;;;44.55;25.15;;;;;;;0.34;100.00;102669.91;5256162;28;20075;-73
2023/01/29 09:04:18;;;;;;;43.30;25.38;;;;;;;0.33;100.00;102676.94;5259603;28;20032;-73
2023/01/29 09:06:50;;;;;;;42.70;24.58;;;;;;;0.35;100.00;102679.56;5252020;28;20098;-73
2023/01/29 09:09:21;;;;;;;42.35;24.73;;;;;;;0.35;100.00;102671.69;5249264;28;20017;-73
2023/01/29 09:11:52;;;;;;;41.50;24.45;;;;;;;0.43;100.00;102671.63;5253740;28;20032;-73
2023/01/29 09:14:24;;;;;;;41.72;24.13;;;;;;;0.38;100.00;102672.53;5252843;28;20033;-73
2023/01/29 09:16:55;;;;;;;40.33;23.30;;;;;;;0.44;100.00;102671.63;5254748;28;20036;-73
2023/01/29 09:19:27;;;;;;;39.65;23.05;;;;;;;0.47;100.00;102668.13;5253484;28;20083;-72
2023/01/29 09:21:58;;;;;;;37.67;22.50;;;;;;;0.47;100.00;102662.88;5259876;28;20079;-72
2023/01/29 09:24:31;;;;;;;40.00;23.35;;;;;;;0.55;100.00;102659.28;5254006;28;20025;-72
2023/01/29 09:27:03;;;;;;;39.88;23.40;;;;;;;0.51;100.00;102660.19;5256524;28;20552;-72
2023/01/29 09:29:35;;;;;;;38.40;23.10;;;;;;;0.60;100.00;102655.81;5247293;28;20472;-72
2023/01/29 09:32:06;;;;;;;37.95;22.63;;;;;;;0.59;100.00;102652.28;5253536;28;20213;-72
2023/01/29 09:34:38;;;;;;;39.00;22.65;;;;;;;0.55;100.00;102656.66;5252817;28;20032;-72
2023/01/29 09:37:09;;;;;;;40.28;23.45;;;;;;;0.58;100.00;102653.19;5252124;28;20033;-72
2023/01/29 09:39:40;;;;;;;37.33;21.77;;;;;;;0.63;100.00;102659.25;5257612;28;20033;-73
2023/01/29 09:42:23;;;;;;;38.95;22.33;;;;;;;0.68;100.00;102654.00;5248251;28;20051;-72
2023/01/29 09:45:08;;;;;;;38.67;23.33;;;;;;;0.67;100.00;102650.50;5250011;28;20107;-72
2023/01/29 09:47:40;;;;;;;35.08;20.58;;;;;;;0.68;100.00;102649.59;5252143;28;20025;-72
2023/01/29 09:50:23;;;;;;;32.78;20.42;;;;;;;0.68;100.00;102657.47;5250367;28;20433;-73
2023/01/29 09:53:00;;;;;;;38.50;22.13;;;;;;;0.69;100.00;102650.47;5249795;28;20360;-72
2023/01/29 09:55:38;;;;;;;37.53;22.08;;;;;;;0.74;100.00;102656.56;5242646;28;20406;-72
2023/01/29 09:58:25;;;;;;;39.03;21.92;;;;;;;0.84;100.00;102654.75;5249593;28;20028;-73
2023/01/29 10:01:12;;;;;;;38.20;22.88;;;;;;;0.79;100.00;102649.53;5251191;28;20410;-72
2023/01/29 10:04:24;;;;;;;38.72;22.65;;;;;;;0.85;100.00;102656.53;5251104;28;20115;-72
2023/01/29 10:07:21;;;;;;;40.25;22.75;;;;;;;0.86;100.00;102653.84;5179856;28;20034;-72
2023/01/29 10:10:48;;;;;;;35.70;21.20;;;;;;;0.88;100.00;102659.09;5216663;28;20109;-72
2023/01/29 10:13:42;;;;;;;;;;;;;;;0.93;100.00;102663.44;5201455;28;20041;-72
2023/01/29 10:16:32;;;;;;;38.13;21.52;;;;;;;0.93;100.00;102657.31;5245205;28;19916;-73
2023/01/29 10:19:16;;;;;;;34.65;20.35;;;;;;;0.93;100.00;102647.69;5250594;28;20032;-72
2023/01/29 10:22:24;;;;;;;34.20;21.00;;;;;;;0.99;100.00;102662.53;5247049;28;20048;-72
2023/01/29 10:24:59;;;;;;;34.67;20.70;;;;;;;1.01;100.00;102654.66;5225289;28;20366;-73
2023/01/29 10:27:37;;;;;;;35.80;21.23;;;;;;;1.03;100.00;102653.75;5250490;28;20159;-73
2023/01/29 10:30:33;;;;;;;37.65;22.00;;;;;;;1.14;100.00;102653.66;5249378;28;20017;-73
2023/01/29 10:33:11;;;;;;;33.80;21.27;;;;;;;1.11;100.00;102648.41;5242320;28;20111;-73
2023/01/29 10:35:48;;;;;;;32.50;20.83;;;;;;;1.16;100.00;102649.25;5251762;28;20116;-73
2023/01/29 10:38:25;;;;;;;34.92;21.17;;;;;;;1.17;100.00;102640.50;5252083;28;20036;-73
2023/01/29 10:41:11;;;;;;;33.35;20.02;;;;;;;1.23;100.00;102644.81;5249976;28;20063;-73
2023/01/29 10:44:02;;;;;;;32.65;20.35;;;;;;;1.27;100.00;102641.31;5249034;28;20078;-72
2023/01/29 10:46:58;;;;;;;33.88;20.02;;;;;;;1.26;100.00;102635.16;5250702;28;20108;-72
2023/01/29 10:49:39;;;;;;;30.52;19.42;;;;;;;1.30;100.00;102636.84;5248773;28;20487;-73
2023/01/29 10:52:19;;;;;;;33.63;20.05;;;;;;;1.39;100.00;102630.66;5246713;28;20462;-73
2023/01/29 10:55:25;;;;;;;29.38;19.60;;;;;;;1.38;100.00;102628.91;5253428;28;20888;-73
2023/01/29 10:58:22;;;;;;;29.65;18.15;;;;;;;1.45;100.00;102630.59;5209547;28;20084;-73
2023/01/29 11:00:53;;;;;;;31.23;18.73;;;;;;;1.44;100.00;102633.22;5249476;28;20045;-73
2023/01/29 11:03:30;;;;;;;28.98;17.55;;;;;;;1.49;100.00;102619.16;5253059;28;20033;-72
2023/01/29 11:06:10;;;;;;;30.75;18.20;;;;;;;1.53;100.00;102618.25;5250884;28;20147;-73
2023/01/29 11:08:47;;;;;;;30.02;18.33;;;;;;;1.55;100.00;102615.59;5252253;28;20075;-72
2023/01/29 11:11:21;;;;;;;29.70;18.15;;;;;;;1.56;100.00;102604.19;5250390;28;20075;-73
2023/01/29 11:14:05;;;;;;;28.52;18.15;;;;;;;1.64;100.00;102598.84;5252228;28;20104;-73
2023/01/29 11:16:45;;;;;;;31.05;18.10;;;;;;;1.62;100.00;102593.59;5249618;28;20037;-73
2023/01/29 11:19:17;;;;;;;30.92;18.70;;;;;;;1.68;100.00;102587.41;5248208;28;20052;-73
2023/01/29 11:22:00;;;;;;;30.40;18.08;;;;;;;1.71;100.00;102580.34;5247399;28;20135;-73
2023/01/29 11:24:31;;;;;;;28.70;17.60;;;;;;;1.81;100.00;102577.59;5253422;28;20375;-73
2023/01/29 11:27:13;;;;;;;29.77;18.23;;;;;;;1.77;100.00;102564.47;5250902;28;20074;-74
2023/01/29 11:29:46;;;;;;;32.58;18.13;;;;;;;1.82;100.00;102556.50;5251058;28;20025;-73
2023/01/29 11:32:18;;;;;;;25.60;16.23;;;;;;;1.86;100.00;102552.97;5249804;28;20082;-73
2023/01/29 11:34:58;;;;;;;30.58;18.45;;;;;;;1.89;100.00;102549.44;5243197;28;20702;-73
2023/01/29 11:37:37;;;;;;;30.80;19.48;;;;;;;1.92;100.00;102544.13;5247694;28;20029;-73
2023/01/29 11:40:17;;;;;;;28.27;18.13;;;;;;;1.95;100.00;102542.31;5250333;28;20040;-73
2023/01/29 11:42:51;;;;;;;30.30;18.85;;;;;;;2.06;100.00;102539.53;5253393;28;20036;-74
2023/01/29 11:45:22;;;;;;;30.00;18.70;;;;;;;2.01;100.00;102536.09;5253952;28;20021;-73
2023/01/29 11:47:55;;;;;;;28.08;18.05;;;;;;;2.04;100.00;102530.78;5249391;28;20032;-73
2023/01/29 11:50:30;;;;;;;29.92;19.33;;;;;;;2.11;100.00;102521.03;5244636;28;20057;-73
2023/01/29 11:53:02;;;;;;;;;;;;;;;2.20;100.00;102522.69;5252935;28;20120;-74
2023/01/29 11:55:36;;;;;;;30.92;18.90;;;;;;;2.17;100.00;102515.72;5248531;28;19966;-74
2023/01/29 11:58:16;;;;;;;30.92;18.85;;;;;;;2.21;100.00;102498.09;5253112;28;20478;-74
2023/01/29 12:00:51;;;;;;;29.48;17.80;;;;;;;2.20;100.00;102499.84;5251131;28;20029;-74
2023/01/29 12:03:32;;;;;;;;;;;;;;;2.29;100.00;102483.06;5252338;28;20029;-74
2023/01/29 12:06:11;;;;;;;27.77;18.20;;;;;;;2.28;100.00;102469.03;5244495;28;19931;-74
2023/01/29 12:08:42;;;;;;;29.95;19.27;;;;;;;2.29;100.00;102464.63;5247248;28;20037;-74
2023/01/29 12:11:29;;;;;;;30.23;19.05;;;;;;;2.35;100.00;102464.50;5242917;28;20442;-74
2023/01/29 12:14:03;;;;;;;29.05;18.80;;;;;;;2.39;100.00;102462.69;5255544;28;20395;-74
2023/01/29 12:16:34;;;;;;;;;;;;;;;2.44;100.00;102453.81;5249929;28;20488;-74